Time;durP1;ratioP1;P1;durP2;ratioP2;P2;SDS_P1;SDS_P2;PMS_P1;PMS_P2;Temp;Humidity;BMP_temperature;BMP_pressure;BME280_temperature;BME280_humidity;BME280_pressure;Samples;Min_cycle;Max_cycle;Signal;HPM_P1;HPM_P2
2021/07/01 00:01:14;;;;;;;0.50;0.50;;;;;;;;;;5003813;28;20279;-47
2021/07/01 00:03:40;;;;;;;0.40;0.40;;;;;;;;;;5012806;28;20196;-47
2021/07/01 00:06:06;;;;;;;0.70;0.70;;;;;;;;;;5012022;28;20620;-48
2021/07/01 00:08:32;;;;;;;1.75;0.47;;;;;;;;;;5014779;28;20204;-47
2021/07/01 00:10:58;;;;;;;0.40;0.40;;;;;;;;;;5014016;28;20204;-47
2021/07/01 00:13:24;;;;;;;2.58;0.82;;;;;;;;;;5014657;28;20168;-47
2021/07/01 00:15:51;;;;;;;0.45;0.40;;;;;;;;;;5004501;28;20570;-48
2021/07/01 00:18:17;;;;;;;0.60;0.60;;;;;;;;;;5008194;28;20224;-48
2021/07/01 00:20:43;;;;;;;2.50;0.80;;;;;;;;;;5010988;28;20234;-47
2021/07/01 00:23:09;;;;;;;2.58;0.50;;;;;;;;;;5012856;28;20210;-48
2021/07/01 00:25:35;;;;;;;0.50;0.50;;;;;;;;;;5013990;28;20627;-48
2021/07/01 00:28:01;;;;;;;0.60;0.60;;;;;;;;;;5010204;28;20252;-47
2021/07/01 00:30:27;;;;;;;1.38;0.60;;;;;;;;;;5005659;28;20271;-48
2021/07/01 00:32:53;;;;;;;1.10;0.50;;;;;;;;;;4997761;28;20264;-47
2021/07/01 00:35:20;;;;;;;0.60;0.60;;;;;;;;;;5004563;28;20580;-47
2021/07/01 00:37:46;;;;;;;1.27;0.90;;;;;;;;;;4996443;28;20265;-47
2021/07/01 00:40:13;;;;;;;0.95;0.88;;;;;;;;;;5003604;28;20255;-48
2021/07/01 00:42:39;;;;;;;1.63;0.88;;;;;;;;;;4997960;28;20229;-48
2021/07/01 00:45:06;;;;;;;1.10;1.00;;;;;;;;;;5004522;28;20185;-47
2021/07/01 00:47:33;;;;;;;0.60;0.60;;;;;;;;;;4999157;28;20188;-48
2021/07/01 00:50:02;;;;;;;1.40;1.10;;;;;;;;;;5003526;28;20304;-47
2021/07/01 00:52:28;;;;;;;1.05;1.05;;;;;;;;;;5013585;28;20193;-47
2021/07/01 00:54:55;;;;;;;0.80;0.80;;;;;;;;;;5012734;28;20222;-47
2021/07/01 00:57:22;;;;;;;0.93;0.82;;;;;;;;;;5013853;28;20469;-47
2021/07/01 00:59:48;;;;;;;1.70;0.65;;;;;;;;;;5013652;28;20180;-47
2021/07/01 01:02:14;;;;;;;0.88;0.70;;;;;;;;;;5007510;28;20215;-47
2021/07/01 01:04:39;;;;;;;0.85;0.73;;;;;;;;;;5001793;28;20197;-47
2021/07/01 01:07:05;;;;;;;1.02;0.90;;;;;;;;;;5016053;28;20484;-47
2021/07/01 01:09:32;;;;;;;0.90;0.90;;;;;;;;;;5015663;28;20200;-47
2021/07/01 01:11:58;;;;;;;0.82;0.70;;;;;;;;;;5007768;28;20192;-47
2021/07/01 01:14:24;;;;;;;0.95;0.70;;;;;;;;;;5010620;28;20208;-47
2021/07/01 01:16:49;;;;;;;1.63;1.00;;;;;;;;;;4997966;28;20429;-48
2021/07/01 01:19:15;;;;;;;1.30;0.70;;;;;;;;;;5010186;28;20181;-47
2021/07/01 01:21:48;;;;;;;1.95;0.80;;;;;;;;;;4998353;28;20252;-47
2021/07/01 01:24:14;;;;;;;1.08;1.00;;;;;;;;;;4998388;28;20545;-48
2021/07/01 01:26:40;;;;;;;1.15;1.00;;;;;;;;;;4999033;28;20261;-47
2021/07/01 01:29:06;;;;;;;0.93;0.90;;;;;;;;;;5000102;28;20177;-47
2021/07/01 01:31:32;;;;;;;0.80;0.80;;;;;;;;;;4997867;28;20264;-47
2021/07/01 01:33:59;;;;;;;0.73;0.70;;;;;;;;;;5008706;28;20200;-47
2021/07/01 01:36:24;;;;;;;0.73;0.73;;;;;;;;;;5014766;28;20211;-48
2021/07/01 01:38:51;;;;;;;1.77;1.08;;;;;;;;;;5017635;28;20218;-47
2021/07/01 01:41:21;;;;;;;1.00;1.00;;;;;;;;;;5000953;28;20231;-48
2021/07/01 01:43:47;;;;;;;0.73;0.70;;;;;;;;;;4998653;28;20458;-47
2021/07/01 01:46:13;;;;;;;1.08;1.00;;;;;;;;;;5010971;28;20187;-47
2021/07/01 01:48:39;;;;;;;1.20;1.05;;;;;;;;;;5013806;28;20599;-47
2021/07/01 01:51:05;;;;;;;2.88;1.00;;;;;;;;;;5014424;28;20211;-47
2021/07/01 01:53:31;;;;;;;2.15;0.90;;;;;;;;;;5000613;28;20234;-48
2021/07/01 01:55:57;;;;;;;1.20;1.00;;;;;;;;;;5004558;28;20188;-47
2021/07/01 01:58:23;;;;;;;1.10;0.95;;;;;;;;;;5009788;28;20200;-47
2021/07/01 02:00:49;;;;;;;1.08;0.75;;;;;;;;;;5012404;28;20207;-47
2021/07/01 02:03:15;;;;;;;1.30;1.10;;;;;;;;;;4998286;28;20498;-48
2021/07/01 02:05:41;;;;;;;1.10;1.10;;;;;;;;;;4998509;28;20181;-47
2021/07/01 02:08:08;;;;;;;0.82;0.82;;;;;;;;;;5001696;28;20182;-47
2021/07/01 02:10:35;;;;;;;2.70;1.08;;;;;;;;;;5015162;28;20285;-47
2021/07/01 02:13:01;;;;;;;1.15;1.00;;;;;;;;;;4997162;28;20204;-47
2021/07/01 02:15:27;;;;;;;1.45;1.35;;;;;;;;;;5002602;28;20311;-47
2021/07/01 02:17:54;;;;;;;1.33;1.20;;;;;;;;;;5005635;28;20171;-47
2021/07/01 02:20:23;;;;;;;1.00;1.00;;;;;;;;;;5002191;28;20189;-47
2021/07/01 02:22:49;;;;;;;0.90;0.90;;;;;;;;;;4997281;28;20173;-47
2021/07/01 02:25:15;;;;;;;0.90;0.90;;;;;;;;;;4996783;28;20173;-47
2021/07/01 02:27:41;;;;;;;0.80;0.80;;;;;;;;;;5003440;28;20181;-48
2021/07/01 02:30:08;;;;;;;1.20;1.10;;;;;;;;;;5016751;28;20176;-47
2021/07/01 02:32:35;;;;;;;1.25;1.15;;;;;;;;;;5011712;28;20188;-47
2021/07/01 02:35:01;;;;;;;1.17;1.00;;;;;;;;;;5014381;28;20269;-47
2021/07/01 02:37:27;;;;;;;1.02;1.02;;;;;;;;;;5013165;28;20567;-47
2021/07/01 02:39:53;;;;;;;1.60;1.15;;;;;;;;;;5014490;28;20462;-47
2021/07/01 02:42:19;;;;;;;1.40;1.00;;;;;;;;;;5014071;28;20191;-47
2021/07/01 02:44:45;;;;;;;1.50;0.98;;;;;;;;;;5008530;28;20193;-47
2021/07/01 02:47:11;;;;;;;1.00;0.90;;;;;;;;;;4996322;28;20185;-47
2021/07/01 02:49:37;;;;;;;1.48;0.95;;;;;;;;;;5001691;28;20227;-47
2021/07/01 02:52:03;;;;;;;2.65;0.80;;;;;;;;;;5016128;28;20512;-47
2021/07/01 02:54:29;;;;;;;2.17;0.80;;;;;;;;;;5016178;28;20208;-47
2021/07/01 02:56:55;;;;;;;0.98;0.98;;;;;;;;;;4996851;28;20177;-47
2021/07/01 02:59:21;;;;;;;1.35;1.00;;;;;;;;;;4996399;28;20166;-47
2021/07/01 03:01:47;;;;;;;1.00;1.00;;;;;;;;;;5005875;28;20199;-47
2021/07/01 03:04:13;;;;;;;2.38;0.90;;;;;;;;;;4999945;28;20219;-47
2021/07/01 03:06:40;;;;;;;1.00;1.00;;;;;;;;;;4994996;28;20725;-47
2021/07/01 03:09:06;;;;;;;1.27;0.82;;;;;;;;;;5003817;28;20208;-47
2021/07/01 03:11:32;;;;;;;3.53;1.13;;;;;;;;;;5015410;28;20246;-47
2021/07/01 03:13:59;;;;;;;1.27;1.10;;;;;;;;;;5007418;28;20628;-47
2021/07/01 03:16:25;;;;;;;3.70;0.90;;;;;;;;;;4995550;28;20192;-47
2021/07/01 03:18:51;;;;;;;1.67;0.98;;;;;;;;;;5005586;28;20177;-47
2021/07/01 03:21:18;;;;;;;0.90;0.77;;;;;;;;;;4997944;28;20252;-47
2021/07/01 03:23:45;;;;;;;1.25;0.80;;;;;;;;;;4996183;28;20195;-47
2021/07/01 03:26:11;;;;;;;1.65;1.00;;;;;;;;;;4995631;28;20173;-47
2021/07/01 03:28:37;;;;;;;1.30;0.93;;;;;;;;;;4995907;28;20224;-47
2021/07/01 03:31:04;;;;;;;1.13;1.10;;;;;;;;;;4999664;28;20180;-47
2021/07/01 03:33:30;;;;;;;0.70;0.70;;;;;;;;;;4995786;28;20192;-48
2021/07/01 03:35:56;;;;;;;1.45;0.85;;;;;;;;;;5004381;28;20201;-47
2021/07/01 03:38:22;;;;;;;0.60;0.60;;;;;;;;;;5007296;28;20579;-47
2021/07/01 03:40:48;;;;;;;1.52;0.73;;;;;;;;;;5014912;28;20178;-47
2021/07/01 03:43:14;;;;;;;0.70;0.70;;;;;;;;;;5008581;28;20271;-47
2021/07/01 03:45:40;;;;;;;0.80;0.80;;;;;;;;;;5010676;28;20267;-47
2021/07/01 03:48:06;;;;;;;0.80;0.80;;;;;;;;;;5007282;28;20172;-47
2021/07/01 03:50:32;;;;;;;1.45;0.80;;;;;;;;;;5009428;28;20192;-47
2021/07/01 03:52:58;;;;;;;1.15;0.73;;;;;;;;;;5014601;28;20168;-47
2021/07/01 03:55:24;;;;;;;1.20;0.95;;;;;;;;;;5014947;28;20227;-47
2021/07/01 03:57:50;;;;;;;1.70;0.80;;;;;;;;;;5007538;28;20184;-47
2021/07/01 04:00:17;;;;;;;1.00;1.00;;;;;;;;;;5014993;28;20169;-47
2021/07/01 04:02:43;;;;;;;1.45;1.35;;;;;;;;;;5012670;28;20177;-47
2021/07/01 04:05:09;;;;;;;1.27;1.17;;;;;;;;;;5011717;28;20204;-47
2021/07/01 04:07:35;;;;;;;5.25;1.45;;;;;;;;;;5012327;28;20616;-47
2021/07/01 04:10:07;;;;;;;8.02;2.70;;;;;;;;;;5014748;28;20473;-47
2021/07/01 04:12:33;;;;;;;7.65;2.70;;;;;;;;;;5009004;28;20654;-47
2021/07/01 04:14:59;;;;;;;7.55;2.50;;;;;;;;;;5007024;28;20299;-47
2021/07/01 04:17:25;;;;;;;4.90;1.73;;;;;;;;;;5012166;28;20260;-47
2021/07/01 04:19:51;;;;;;;4.22;1.90;;;;;;;;;;5012715;28;20176;-47
2021/07/01 04:22:17;;;;;;;7.40;1.75;;;;;;;;;;5017368;28;20177;-47
2021/07/01 04:24:43;;;;;;;2.92;2.00;;;;;;;;;;5020800;28;20180;-47
2021/07/01 04:27:09;;;;;;;1.83;1.30;;;;;;;;;;5013893;28;20575;-47
2021/07/01 04:29:35;;;;;;;2.17;1.63;;;;;;;;;;5012224;28;20180;-47
2021/07/01 04:32:01;;;;;;;2.85;1.50;;;;;;;;;;4994969;28;20480;-47
2021/07/01 04:34:27;;;;;;;3.50;1.67;;;;;;;;;;5006713;28;20215;-47
2021/07/01 04:36:53;;;;;;;2.30;1.48;;;;;;;;;;4996570;28;20177;-47
2021/07/01 04:39:19;;;;;;;2.72;1.67;;;;;;;;;;5000231;28;20236;-47
2021/07/01 04:41:45;;;;;;;4.13;1.17;;;;;;;;;;4995124;28;20236;-47
2021/07/01 04:44:11;;;;;;;1.58;1.33;;;;;;;;;;4995141;28;20170;-47
2021/07/01 04:46:37;;;;;;;6.35;1.55;;;;;;;;;;4994697;28;20450;-47
2021/07/01 04:49:03;;;;;;;2.15;1.45;;;;;;;;;;5004613;28;20183;-47
2021/07/01 04:51:29;;;;;;;1.65;1.40;;;;;;;;;;5001701;28;20264;-48
2021/07/01 04:53:55;;;;;;;1.63;1.30;;;;;;;;;;5003328;28;22370;-47
2021/07/01 04:56:21;;;;;;;2.60;1.25;;;;;;;;;;5016474;28;20187;-47
2021/07/01 04:58:47;;;;;;;3.38;1.25;;;;;;;;;;5016984;28;20204;-47
2021/07/01 05:01:13;;;;;;;1.77;1.35;;;;;;;;;;5017365;28;20181;-47
2021/07/01 05:03:39;;;;;;;3.03;1.73;;;;;;;;;;5010387;28;20199;-47
2021/07/01 05:06:05;;;;;;;1.52;1.42;;;;;;;;;;5018771;28;20497;-47
2021/07/01 05:08:31;;;;;;;1.10;1.00;;;;;;;;;;5018496;28;20188;-47
2021/07/01 05:10:57;;;;;;;1.10;1.10;;;;;;;;;;5017445;28;20184;-47
2021/07/01 05:13:23;;;;;;;1.20;1.00;;;;;;;;;;5008517;28;20204;-47
2021/07/01 05:15:49;;;;;;;1.45;1.35;;;;;;;;;;5000496;28;20490;-47
2021/07/01 05:18:16;;;;;;;1.67;1.30;;;;;;;;;;5016326;28;20179;-47
2021/07/01 05:20:44;;;;;;;2.47;1.13;;;;;;;;;;5020623;28;20180;-47
2021/07/01 05:23:11;;;;;;;1.30;1.20;;;;;;;;;;5020113;28;20552;-47
2021/07/01 05:25:37;;;;;;;1.20;1.10;;;;;;;;;;5016583;28;20523;-47
2021/07/01 05:28:12;;;;;;;1.30;1.20;;;;;;;;;;5025560;28;20200;-47
2021/07/01 05:30:39;;;;;;;1.45;1.08;;;;;;;;;;4999193;28;20319;-47
2021/07/01 05:33:05;;;;;;;3.03;1.27;;;;;;;;;;5003578;28;20176;-47
2021/07/01 05:35:31;;;;;;;1.67;1.00;;;;;;;;;;5006542;28;20259;-47
2021/07/01 05:37:57;;;;;;;1.02;1.02;;;;;;;;;;5016835;28;20174;-47
2021/07/01 05:40:24;;;;;;;1.10;1.00;;;;;;;;;;5017004;28;20591;-47
2021/07/01 05:42:50;;;;;;;1.15;1.00;;;;;;;;;;5010028;28;20173;-47
2021/07/01 05:45:16;;;;;;;2.28;1.33;;;;;;;;;;5007387;28;20185;-47
2021/07/01 05:47:42;;;;;;;1.73;1.48;;;;;;;;;;5006156;28;20185;-47
2021/07/01 05:50:09;;;;;;;1.13;0.90;;;;;;;;;;5007553;28;20236;-47
2021/07/01 05:52:37;;;;;;;3.13;1.10;;;;;;;;;;4997296;28;20220;-47
2021/07/01 05:55:03;;;;;;;0.98;0.90;;;;;;;;;;5016501;28;20200;-47
2021/07/01 05:57:30;;;;;;;1.27;1.27;;;;;;;;;;5000529;28;20259;-47
2021/07/01 05:59:56;;;;;;;3.35;1.40;;;;;;;;;;4998110;28;20177;-47
2021/07/01 06:02:22;;;;;;;1.65;1.20;;;;;;;;;;4998519;28;20556;-47
2021/07/01 06:04:49;;;;;;;1.38;1.27;;;;;;;;;;5011064;28;20278;-47
2021/07/01 06:07:20;;;;;;;2.45;1.23;;;;;;;;;;4996672;28;20482;-47
2021/07/01 06:09:49;;;;;;;2.05;1.17;;;;;;;;;;5003467;28;20180;-47
2021/07/01 06:12:15;;;;;;;1.42;1.30;;;;;;;;;;5002968;28;20189;-47
2021/07/01 06:14:42;;;;;;;1.00;0.90;;;;;;;;;;5016443;28;20207;-47
2021/07/01 06:17:08;;;;;;;2.08;1.10;;;;;;;;;;5016276;28;20183;-47
2021/07/01 06:19:35;;;;;;;1.23;1.17;;;;;;;;;;5011172;28;20488;-47
2021/07/01 06:22:01;;;;;;;1.40;1.30;;;;;;;;;;5016669;28;20515;-47
2021/07/01 06:24:29;;;;;;;1.10;1.00;;;;;;;;;;5015889;28;20180;-47
2021/07/01 06:26:56;;;;;;;1.85;1.40;;;;;;;;;;5015884;28;20161;-47
2021/07/01 06:29:22;;;;;;;1.83;1.50;;;;;;;;;;5009418;28;20545;-46
2021/07/01 06:31:48;;;;;;;3.50;1.70;;;;;;;;;;5002149;28;20281;-46
2021/07/01 06:34:17;;;;;;;1.73;1.63;;;;;;;;;;5003437;28;20604;-47
2021/07/01 06:36:43;;;;;;;1.67;1.38;;;;;;;;;;5016123;28;20475;-47
2021/07/01 06:39:09;;;;;;;1.40;1.25;;;;;;;;;;5016332;28;20169;-47
2021/07/01 06:41:37;;;;;;;1.40;1.30;;;;;;;;;;5016239;28;20567;-47
2021/07/01 06:44:03;;;;;;;1.20;1.20;;;;;;;;;;4999447;28;20199;-47
2021/07/01 06:46:32;;;;;;;1.30;1.20;;;;;;;;;;5019850;28;20189;-47
2021/07/01 06:48:58;;;;;;;4.78;2.00;;;;;;;;;;5004014;28;20238;-47
2021/07/01 06:51:24;;;;;;;1.98;1.88;;;;;;;;;;4998120;28;20238;-47
2021/07/01 06:53:52;;;;;;;1.55;1.45;;;;;;;;;;4994212;28;20642;-47
2021/07/01 06:56:21;;;;;;;1.50;1.40;;;;;;;;;;4994800;28;20173;-49
2021/07/01 06:58:47;;;;;;;2.30;2.10;;;;;;;;;;5000941;28;20168;-47
2021/07/01 07:01:13;;;;;;;1.90;1.80;;;;;;;;;;5000012;28;20268;-47
2021/07/01 07:03:39;;;;;;;2.05;1.73;;;;;;;;;;4995261;28;20193;-47
2021/07/01 07:06:06;;;;;;;2.92;2.58;;;;;;;;;;4995132;28;20545;-47
2021/07/01 07:08:32;;;;;;;3.17;2.70;;;;;;;;;;4996389;28;20200;-47
2021/07/01 07:10:59;;;;;;;2.70;2.50;;;;;;;;;;5000778;28;20177;-47
2021/07/01 07:13:26;;;;;;;4.15;2.50;;;;;;;;;;5015160;28;20531;-47
2021/07/01 07:15:53;;;;;;;3.30;2.90;;;;;;;;;;5015382;28;20643;-47
2021/07/01 07:18:31;;;;;;;3.25;2.95;;;;;;;;;;5015697;28;20215;-47
2021/07/01 07:20:58;;;;;;;3.55;3.25;;;;;;;;;;5009953;28;20208;-47
2021/07/01 07:23:34;;;;;;;4.20;3.80;;;;;;;;;;4995235;28;20166;-47
2021/07/01 07:26:01;;;;;;;4.07;3.55;;;;;;;;;;4995617;28;20184;-47
2021/07/01 07:28:28;;;;;;;3.63;3.30;;;;;;;;;;4995796;28;20184;-47
2021/07/01 07:30:55;;;;;;;4.38;3.95;;;;;;;;;;4996095;28;20264;-47
2021/07/01 07:33:26;;;;;;;4.50;4.10;;;;;;;;;;4995888;28;20880;-47
2021/07/01 07:35:53;;;;;;;5.00;4.57;;;;;;;;;;5013032;28;20475;-47
2021/07/01 07:38:19;;;;;;;5.43;4.88;;;;;;;;;;5015496;28;20222;-47
2021/07/01 07:40:49;;;;;;;4.45;4.07;;;;;;;;;;5015515;28;20176;-47
2021/07/01 07:43:15;;;;;;;4.03;3.63;;;;;;;;;;5015465;28;20192;-47
2021/07/01 07:45:42;;;;;;;2.85;2.65;;;;;;;;;;5015402;28;20173;-47
2021/07/01 07:48:08;;;;;;;5.20;4.70;;;;;;;;;;5014913;28;20196;-47
2021/07/01 07:50:37;;;;;;;4.78;4.25;;;;;;;;;;5004588;28;20286;-47
2021/07/01 07:53:05;;;;;;;5.03;4.53;;;;;;;;;;4995805;28;20169;-47
2021/07/01 07:55:31;;;;;;;5.30;4.80;;;;;;;;;;4995271;28;20248;-46
2021/07/01 07:57:59;;;;;;;4.90;4.13;;;;;;;;;;5010646;28;20195;-47
2021/07/01 08:00:26;;;;;;;4.10;3.80;;;;;;;;;;5002229;28;20580;-47
2021/07/01 08:02:56;;;;;;;5.50;3.40;;;;;;;;;;5000765;28;20173;-47
2021/07/01 08:05:23;;;;;;;5.32;3.55;;;;;;;;;;5007279;28;20196;-47
2021/07/01 08:07:50;;;;;;;3.20;2.90;;;;;;;;;;5013665;28;20203;-47
2021/07/01 08:10:19;;;;;;;3.75;3.40;;;;;;;;;;5000920;28;20252;-47
2021/07/01 08:12:48;;;;;;;3.42;3.13;;;;;;;;;;5003797;28;20172;-47
2021/07/01 08:15:15;;;;;;;2.78;2.58;;;;;;;;;;5014752;28;20275;-47
2021/07/01 08:17:42;;;;;;;3.95;3.05;;;;;;;;;;5013918;28;20203;-47
2021/07/01 08:20:09;;;;;;;4.55;3.42;;;;;;;;;;5014295;28;20244;-47
2021/07/01 08:22:36;;;;;;;3.08;2.78;;;;;;;;;;5012013;28;20263;-47
2021/07/01 08:25:02;;;;;;;3.83;2.75;;;;;;;;;;5020645;28;20558;-47
2021/07/01 08:27:28;;;;;;;2.40;2.15;;;;;;;;;;5007912;28;20184;-47
2021/07/01 08:29:54;;;;;;;3.15;2.63;;;;;;;;;;5021101;28;20207;-47
2021/07/01 08:32:21;;;;;;;2.80;2.60;;;;;;;;;;5011342;28;20192;-47
2021/07/01 08:34:48;;;;;;;2.90;2.63;;;;;;;;;;5001533;28;20262;-47
2021/07/01 08:37:15;;;;;;;3.28;2.97;;;;;;;;;;5007393;28;20165;-47
2021/07/01 08:39:41;;;;;;;3.30;3.00;;;;;;;;;;5005228;28;20790;-47
2021/07/01 08:42:09;;;;;;;3.50;3.20;;;;;;;;;;4999540;28;20232;-47
2021/07/01 08:44:43;;;;;;;3.42;3.13;;;;;;;;;;4999547;28;20187;-47
2021/07/01 08:47:13;;;;;;;4.50;3.30;;;;;;;;;;5000116;28;20272;-47
2021/07/01 08:49:56;;;;;;;5.15;2.92;;;;;;;;;;5000424;28;20778;-47
2021/07/01 08:52:31;;;;;;;3.30;3.00;;;;;;;;;;5001593;28;20212;-47
2021/07/01 08:54:58;;;;;;;2.50;2.30;;;;;;;;;;5019933;28;20774;-47
2021/07/01 08:57:29;;;;;;;2.60;2.40;;;;;;;;;;5020447;28;20249;-47
2021/07/01 08:59:59;;;;;;;2.70;2.50;;;;;;;;;;5021054;28;20256;-47
2021/07/01 09:02:32;;;;;;;2.40;2.20;;;;;;;;;;5021023;28;20180;-47
2021/07/01 09:05:00;;;;;;;2.78;2.08;;;;;;;;;;5020965;28;20234;-47
2021/07/01 09:07:27;;;;;;;2.72;2.45;;;;;;;;;;5020159;28;20230;-47
2021/07/01 09:09:57;;;;;;;2.45;2.25;;;;;;;;;;5004029;28;20758;-48
2021/07/01 09:12:24;;;;;;;2.28;2.08;;;;;;;;;;5012481;28;20234;-47
2021/07/01 09:14:58;;;;;;;2.60;2.15;;;;;;;;;;5020785;28;20196;-47
2021/07/01 09:17:31;;;;;;;2.15;1.73;;;;;;;;;;5020049;28;20499;-47
2021/07/01 09:19:57;;;;;;;1.80;1.70;;;;;;;;;;5020457;28;20160;-47
2021/07/01 09:22:24;;;;;;;1.67;1.58;;;;;;;;;;5019836;28;20508;-48
2021/07/01 09:24:51;;;;;;;2.45;1.60;;;;;;;;;;5019134;28;20184;-47
2021/07/01 09:27:17;;;;;;;1.90;1.80;;;;;;;;;;5020214;28;20242;-47
2021/07/01 09:29:45;;;;;;;1.70;1.60;;;;;;;;;;5020695;28;20202;-47
2021/07/01 09:32:11;;;;;;;1.30;1.20;;;;;;;;;;5015405;28;20252;-47
2021/07/01 09:34:38;;;;;;;1.60;1.50;;;;;;;;;;5016079;28;20212;-47
2021/07/01 09:37:05;;;;;;;1.60;1.50;;;;;;;;;;5010415;28;20181;-47
2021/07/01 09:39:34;;;;;;;2.25;1.40;;;;;;;;;;4998768;28;20185;-47
2021/07/01 09:42:01;;;;;;;1.35;1.10;;;;;;;;;;5011234;28;20174;-47
2021/07/01 09:44:29;;;;;;;1.40;1.30;;;;;;;;;;5006926;28;20177;-47
2021/07/01 09:46:58;;;;;;;1.48;1.30;;;;;;;;;;5002957;28;20177;-48
2021/07/01 09:49:29;;;;;;;2.08;1.20;;;;;;;;;;4997343;28;20181;-47
2021/07/01 09:51:57;;;;;;;1.30;1.20;;;;;;;;;;5000509;28;20184;-47
2021/07/01 09:54:23;;;;;;;1.20;1.10;;;;;;;;;;5006562;28;20339;-47
2021/07/01 09:56:52;;;;;;;1.30;1.20;;;;;;;;;;5002242;28;20168;-47
2021/07/01 09:59:22;;;;;;;1.00;1.00;;;;;;;;;;5034796;28;20735;-47
2021/07/01 10:01:48;;;;;;;1.10;1.10;;;;;;;;;;5036661;28;20242;-47
2021/07/01 10:04:14;;;;;;;1.60;1.50;;;;;;;;;;5036754;28;20187;-48
2021/07/01 10:06:40;;;;;;;1.00;1.00;;;;;;;;;;5029917;28;20574;-47
2021/07/01 10:09:07;;;;;;;1.25;1.15;;;;;;;;;;5002585;28;20177;-47
2021/07/01 10:11:37;;;;;;;1.25;1.15;;;;;;;;;;5006661;28;20192;-48
2021/07/01 10:14:05;;;;;;;1.30;1.20;;;;;;;;;;5014456;28;20180;-47
2021/07/01 10:16:31;;;;;;;1.20;1.20;;;;;;;;;;5015853;28;20168;-47
2021/07/01 10:18:58;;;;;;;0.93;0.93;;;;;;;;;;5015923;28;20195;-47
2021/07/01 10:21:27;;;;;;;1.20;1.13;;;;;;;;;;5015512;28;20177;-47
2021/07/01 10:24:07;;;;;;;1.15;1.00;;;;;;;;;;5012810;28;20176;-47
2021/07/01 10:26:38;;;;;;;1.20;1.10;;;;;;;;;;5016189;28;20259;-47
2021/07/01 10:29:04;;;;;;;1.10;1.08;;;;;;;;;;5014650;28;20234;-47
2021/07/01 10:31:49;;;;;;;1.77;1.08;;;;;;;;;;5014911;28;20176;-47
2021/07/01 10:34:15;;;;;;;1.35;1.25;;;;;;;;;;5012161;28;20560;-47
2021/07/01 10:36:41;;;;;;;2.35;1.20;;;;;;;;;;5014101;28;20320;-47
2021/07/01 10:39:07;;;;;;;1.08;1.05;;;;;;;;;;5005071;28;20176;-47
2021/07/01 10:41:34;;;;;;;1.92;1.10;;;;;;;;;;5015345;28;20169;-47
2021/07/01 10:44:01;;;;;;;1.30;1.30;;;;;;;;;;5022961;28;20199;-47
2021/07/01 10:46:47;;;;;;;1.08;1.08;;;;;;;;;;5001513;28;20189;-47
2021/07/01 10:49:14;;;;;;;1.38;1.30;;;;;;;;;;5012239;28;20191;-47
2021/07/01 10:51:56;;;;;;;1.30;1.20;;;;;;;;;;4999519;28;20255;-47
2021/07/01 10:54:22;;;;;;;1.08;1.00;;;;;;;;;;5014687;28;20205;-47
2021/07/01 10:56:50;;;;;;;1.13;1.13;;;;;;;;;;5009881;28;20483;-48
2021/07/01 10:59:16;;;;;;;2.25;1.00;;;;;;;;;;4993586;28;20176;-48
2021/07/01 11:01:44;;;;;;;0.95;0.95;;;;;;;;;;4995221;28;20177;-47
2021/07/01 11:04:10;;;;;;;1.10;1.10;;;;;;;;;;4994627;28;20196;-47
2021/07/01 11:06:37;;;;;;;1.20;1.10;;;;;;;;;;4994347;28;20177;-47
2021/07/01 11:09:04;;;;;;;1.10;1.10;;;;;;;;;;4994780;28;20259;-47
2021/07/01 11:11:31;;;;;;;2.20;1.05;;;;;;;;;;5004033;28;20188;-48
2021/07/01 11:13:59;;;;;;;3.78;1.10;;;;;;;;;;5015678;28;20169;-47
2021/07/01 11:16:51;;;;;;;3.70;1.20;;;;;;;;;;5015218;28;20262;-47
2021/07/01 11:19:18;;;;;;;1.77;0.93;;;;;;;;;;4993197;28;20208;-47
2021/07/01 11:21:46;;;;;;;1.20;1.10;;;;;;;;;;4996259;28;20194;-47
2021/07/01 11:24:19;;;;;;;3.15;1.10;;;;;;;;;;4996133;28;20224;-47
2021/07/01 11:26:49;;;;;;;1.42;1.15;;;;;;;;;;4995776;28;20169;-47
2021/07/01 11:29:15;;;;;;;1.13;1.13;;;;;;;;;;4995673;28;20189;-47
2021/07/01 11:31:46;;;;;;;1.63;1.15;;;;;;;;;;4995974;28;20444;-47
2021/07/01 11:34:13;;;;;;;1.17;1.10;;;;;;;;;;4996833;28;20300;-47
2021/07/01 11:36:39;;;;;;;1.17;1.15;;;;;;;;;;4995533;28;20169;-48
2021/07/01 11:39:05;;;;;;;1.42;1.27;;;;;;;;;;4995693;28;20735;-47
2021/07/01 11:41:32;;;;;;;1.00;1.00;;;;;;;;;;4995881;28;20252;-47
2021/07/01 11:43:59;;;;;;;1.02;1.02;;;;;;;;;;4995495;28;20176;-47
2021/07/01 11:46:25;;;;;;;1.23;1.15;;;;;;;;;;4995426;28;20549;-47
2021/07/01 11:48:53;;;;;;;1.30;0.90;;;;;;;;;;4995687;28;20257;-48
2021/07/01 11:51:21;;;;;;;1.15;1.15;;;;;;;;;;4996631;28;20169;-47
2021/07/01 11:53:51;;;;;;;1.05;1.00;;;;;;;;;;4995603;28;20184;-47
2021/07/01 11:56:17;;;;;;;1.13;1.13;;;;;;;;;;4994604;28;20474;-47
2021/07/01 11:58:46;;;;;;;1.05;1.05;;;;;;;;;;4995326;28;20239;-48
2021/07/01 12:01:12;;;;;;;1.48;1.38;;;;;;;;;;4995431;28;20540;-47
2021/07/01 12:03:38;;;;;;;2.08;1.23;;;;;;;;;;4995516;28;20173;-47
2021/07/01 12:06:04;;;;;;;1.20;1.10;;;;;;;;;;4995999;28;20182;-47
2021/07/01 12:08:31;;;;;;;1.23;0.95;;;;;;;;;;4995345;28;20177;-47
2021/07/01 12:11:00;;;;;;;1.30;1.20;;;;;;;;;;4994976;28;20256;-48
2021/07/01 12:13:32;;;;;;;1.63;1.52;;;;;;;;;;4995180;28;20169;-47
2021/07/01 12:16:02;;;;;;;1.52;1.42;;;;;;;;;;4994780;28;20551;-47
2021/07/01 12:18:55;;;;;;;1.48;1.38;;;;;;;;;;4996637;28;20181;-47
2021/07/01 12:21:23;;;;;;;1.95;1.85;;;;;;;;;;4993743;28;20195;-48
2021/07/01 12:23:50;;;;;;;1.52;1.38;;;;;;;;;;4994903;28;20204;-47
2021/07/01 12:26:32;;;;;;;1.42;1.33;;;;;;;;;;4994689;28;20165;-47
2021/07/01 12:28:59;;;;;;;1.60;1.35;;;;;;;;;;5006087;28;20176;-48
2021/07/01 12:31:28;;;;;;;1.60;1.50;;;;;;;;;;5013787;28;20218;-47
2021/07/01 12:33:56;;;;;;;2.28;1.25;;;;;;;;;;5013456;28;20436;-48
2021/07/01 12:36:28;;;;;;;2.33;1.40;;;;;;;;;;5012926;28;20199;-47
2021/07/01 12:39:10;;;;;;;1.60;1.50;;;;;;;;;;5005830;28;20181;-47
2021/07/01 12:41:36;;;;;;;1.73;1.58;;;;;;;;;;5009381;28;20204;-47
2021/07/01 12:44:10;;;;;;;1.42;1.33;;;;;;;;;;5011532;28;20543;-48
2021/07/01 12:46:42;;;;;;;1.55;1.40;;;;;;;;;;4994468;28;20169;-47
2021/07/01 12:51:54;;;;;;;1.50;1.40;;;;;;;;;;5014600;28;20173;-48
2021/07/01 12:54:24;;;;;;;2.40;1.55;;;;;;;;;;5004340;28;20214;-47
2021/07/01 12:57:02;;;;;;;2.60;1.55;;;;;;;;;;4998016;28;20283;-47
2021/07/01 12:59:28;;;;;;;1.55;1.42;;;;;;;;;;4998837;28;20322;-48
2021/07/01 13:01:56;;;;;;;1.40;1.30;;;;;;;;;;5014090;28;20191;-47
2021/07/01 13:04:26;;;;;;;1.50;1.40;;;;;;;;;;5014177;28;20267;-48
2021/07/01 13:06:52;;;;;;;3.58;1.27;;;;;;;;;;5009080;28;20466;-47
2021/07/01 13:09:28;;;;;;;1.60;1.50;;;;;;;;;;5009288;28;20209;-48
2021/07/01 13:11:54;;;;;;;1.70;1.60;;;;;;;;;;5018301;28;20205;-47
2021/07/01 13:14:23;;;;;;;1.50;1.40;;;;;;;;;;5020834;28;20198;-47
2021/07/01 13:17:08;;;;;;;2.33;1.17;;;;;;;;;;5022215;28;20212;-47
2021/07/01 13:19:38;;;;;;;1.50;1.40;;;;;;;;;;5013197;28;20208;-48
2021/07/01 13:22:17;;;;;;;2.55;1.70;;;;;;;;;;4998166;28;20184;-47
2021/07/01 13:24:54;;;;;;;1.60;1.50;;;;;;;;;;5008968;28;20223;-47
2021/07/01 13:27:33;;;;;;;1.48;1.38;;;;;;;;;;5009971;28;20203;-47
2021/07/01 13:30:00;;;;;;;1.40;1.38;;;;;;;;;;5026326;28;20187;-48
2021/07/01 13:32:26;;;;;;;1.50;1.40;;;;;;;;;;5037356;28;20187;-47
2021/07/01 13:34:52;;;;;;;1.50;1.40;;;;;;;;;;5030935;28;20235;-47
2021/07/01 13:37:26;;;;;;;3.20;1.40;;;;;;;;;;5013943;28;20191;-47
2021/07/01 13:39:56;;;;;;;1.73;1.33;;;;;;;;;;5009385;28;20287;-48
2021/07/01 13:42:25;;;;;;;1.42;1.33;;;;;;;;;;4998948;28;20189;-47
2021/07/01 13:44:58;;;;;;;2.15;1.20;;;;;;;;;;4997915;28;20560;-47
2021/07/01 13:47:24;;;;;;;1.30;1.20;;;;;;;;;;4996957;28;20185;-47
2021/07/01 13:49:50;;;;;;;1.30;1.20;;;;;;;;;;5014001;28;20267;-47
2021/07/01 13:52:16;;;;;;;1.27;1.17;;;;;;;;;;5012381;28;20187;-47
2021/07/01 13:54:42;;;;;;;1.30;1.20;;;;;;;;;;5010952;28;20200;-48
2021/07/01 13:57:08;;;;;;;1.88;1.40;;;;;;;;;;5010791;28;20184;-47
2021/07/01 13:59:34;;;;;;;1.20;1.08;;;;;;;;;;5015450;28;20448;-48
2021/07/01 14:02:01;;;;;;;1.70;1.30;;;;;;;;;;5007858;28;20576;-48
2021/07/01 14:04:27;;;;;;;1.65;1.40;;;;;;;;;;5013153;28;20219;-47
2021/07/01 14:06:53;;;;;;;2.38;1.17;;;;;;;;;;5014418;28;20177;-47
2021/07/01 14:09:20;;;;;;;3.10;1.20;;;;;;;;;;5007419;28;20434;-48
2021/07/01 14:11:47;;;;;;;2.15;1.20;;;;;;;;;;4999860;28;20452;-47
2021/07/01 14:14:15;;;;;;;2.88;1.17;;;;;;;;;;4997889;28;20343;-48
2021/07/01 14:16:41;;;;;;;1.30;1.20;;;;;;;;;;4996295;28;20249;-47
2021/07/01 14:19:11;;;;;;;1.33;1.27;;;;;;;;;;4996564;28;20173;-48
2021/07/01 14:21:45;;;;;;;1.85;1.25;;;;;;;;;;5003570;28;20192;-48
2021/07/01 14:24:14;;;;;;;1.20;1.10;;;;;;;;;;5011056;28;20200;-47
2021/07/01 14:26:47;;;;;;;1.73;1.08;;;;;;;;;;5006193;28;20178;-47
2021/07/01 14:29:13;;;;;;;1.20;1.00;;;;;;;;;;5004081;28;20177;-47
2021/07/01 14:31:40;;;;;;;1.23;1.13;;;;;;;;;;4997047;28;20184;-48
2021/07/01 14:34:06;;;;;;;2.30;1.30;;;;;;;;;;5000839;28;20169;-48
2021/07/01 14:36:35;;;;;;;1.92;1.10;;;;;;;;;;5000894;28;20173;-48
2021/07/01 14:39:12;;;;;;;1.75;1.00;;;;;;;;;;5005644;28;20179;-47
2021/07/01 14:41:39;;;;;;;1.00;1.00;;;;;;;;;;5007014;28;20615;-47
2021/07/01 14:44:07;;;;;;;1.90;1.10;;;;;;;;;;5014332;28;20217;-47
2021/07/01 14:46:33;;;;;;;1.15;1.05;;;;;;;;;;5014898;28;20176;-48
2021/07/01 14:49:00;;;;;;;1.00;1.00;;;;;;;;;;5013516;28;20564;-47